createdAt,value
2022-11-10T00:09:24.670Z,4.77
2022-11-10T00:19:29.188Z,5.00
2022-11-10T00:29:30.821Z,8.30
2022-11-10T00:39:32.444Z,4.13
2022-11-10T00:49:34.509Z,6.87
2022-11-10T00:59:36.143Z,8.30
2022-11-10T01:09:37.891Z,13.37
2022-11-10T01:19:41.463Z,10.10
2022-11-10T01:29:43.410Z,7.47
2022-11-10T01:39:45.057Z,6.63
2022-11-10T01:49:46.713Z,13.30
2022-11-10T01:59:50.046Z,8.10
2022-11-10T02:09:53.441Z,5.03
2022-11-10T02:19:59.604Z,7.03
2022-11-10T02:30:02.684Z,5.50
2022-11-10T02:40:05.356Z,6.43
2022-11-10T02:50:07.486Z,6.60
2022-11-10T03:00:09.667Z,6.17
2022-11-10T03:10:11.304Z,9.50
2022-11-10T03:20:13.146Z,8.47
2022-11-10T03:30:14.996Z,8.73
2022-11-10T03:40:16.673Z,7.87
2022-11-10T03:50:18.411Z,9.53
2022-11-10T04:00:20.278Z,7.53
2022-11-10T04:10:21.931Z,5.97
2022-11-10T04:20:23.539Z,11.43
2022-11-10T04:30:25.169Z,9.20
2022-11-10T04:40:26.769Z,9.67
2022-11-10T04:50:28.408Z,8.90
2022-11-10T05:00:30.170Z,5.13
2022-11-10T05:10:32.050Z,7.83
2022-11-10T05:20:33.718Z,9.03
2022-11-10T05:30:35.905Z,9.90
2022-11-10T05:40:37.508Z,9.90
2022-11-10T05:50:39.139Z,6.17
2022-11-10T06:00:40.940Z,9.47
2022-11-10T06:10:42.588Z,10.50
2022-11-10T06:20:46.302Z,9.00
2022-11-10T06:30:48.023Z,9.47
2022-11-10T06:40:49.647Z,10.43
2022-11-10T06:50:51.272Z,11.23
2022-11-10T07:00:52.964Z,12.67
2022-11-10T07:10:55.457Z,14.63
2022-11-10T07:20:57.083Z,12.60
2022-11-10T07:31:01.769Z,12.97
2022-11-10T07:41:03.437Z,13.57
2022-11-10T07:51:05.232Z,13.33
2022-11-10T08:01:06.960Z,11.10
2022-11-10T08:11:08.681Z,11.97
2022-11-10T08:21:10.313Z,10.33
2022-11-10T08:31:11.943Z,10.90
2022-11-10T08:41:13.598Z,11.00
2022-11-10T08:51:15.216Z,9.50
2022-11-10T09:01:16.859Z,12.53
2022-11-10T09:11:18.487Z,9.50
2022-11-10T09:21:20.102Z,12.50
2022-11-10T09:31:21.864Z,10.40
2022-11-10T09:41:23.517Z,9.90
2022-11-10T09:51:29.091Z,6.47
2022-11-10T10:01:51.351Z,6.70
2022-11-10T10:12:24.426Z,5.67
2022-11-10T10:22:35.364Z,12.30
2022-11-10T10:32:37.006Z,6.73
2022-11-10T10:42:38.711Z,12.20
2022-11-10T10:52:40.334Z,7.67
2022-11-10T11:02:41.990Z,8.00
2022-11-10T11:12:43.626Z,9.87
2022-11-10T11:22:55.425Z,9.97
2022-11-10T11:33:12.075Z,10.70
2022-11-10T11:43:25.180Z,8.00
2022-11-10T11:53:48.052Z,9.80
2022-11-10T12:03:59.218Z,7.23
2022-11-10T12:14:21.747Z,8.30
2022-11-10T12:24:28.737Z,8.47
2022-11-10T12:34:44.000Z,5.57
2022-11-10T12:45:00.211Z,7.30
2022-11-10T12:55:02.023Z,7.13
2022-11-10T13:05:18.716Z,5.10
2022-11-10T13:15:48.414Z,5.53
2022-11-10T13:25:57.857Z,7.57
2022-11-10T13:35:59.670Z,12.63
2022-11-10T13:46:03.709Z,7.07
2022-11-10T13:56:50.631Z,9.47
2022-11-10T14:06:55.050Z,8.90
2022-11-10T14:16:57.317Z,6.00
2022-11-10T14:27:05.000Z,6.07
2022-11-10T14:37:06.847Z,7.20
2022-11-10T14:47:25.061Z,8.33
2022-11-10T14:57:26.985Z,13.23
2022-11-10T15:07:28.917Z,11.07
2022-11-10T15:17:50.480Z,13.47
2022-11-10T15:28:12.230Z,11.60
2022-11-10T15:38:19.641Z,6.67
2022-11-10T15:48:23.413Z,11.80
2022-11-10T15:58:27.521Z,14.63
2022-11-10T16:08:32.076Z,10.07
2022-11-10T16:18:33.784Z,11.23
2022-11-10T16:28:35.409Z,15.50
2022-11-10T16:38:37.066Z,11.33
2022-11-10T16:48:38.815Z,15.37
2022-11-10T16:58:40.609Z,14.07
2022-11-10T17:08:43.496Z,15.00
2022-11-10T17:18:45.260Z,15.40
2022-11-10T17:28:47.240Z,14.17
2022-11-10T17:38:49.307Z,16.73
2022-11-10T17:48:54.755Z,11.27
2022-11-10T17:58:56.645Z,14.23
2022-11-10T18:08:58.303Z,17.63
2022-11-10T18:19:00.301Z,17.37
2022-11-10T18:29:01.972Z,21.30
2022-11-10T18:39:03.703Z,21.47
2022-11-10T18:49:05.504Z,23.73
2022-11-10T18:59:07.141Z,27.33
2022-11-10T19:09:08.794Z,21.33
2022-11-10T19:19:10.737Z,25.43
2022-11-10T19:29:12.414Z,14.80
2022-11-10T19:39:14.698Z,16.17
2022-11-10T19:49:16.524Z,17.73
2022-11-10T19:59:19.915Z,24.20
2022-11-10T20:09:24.525Z,21.13
2022-11-10T20:19:26.229Z,22.53
2022-11-10T20:29:27.974Z,18.30
2022-11-10T20:39:29.634Z,34.40
2022-11-10T20:49:31.282Z,33.97
2022-11-10T20:59:33.212Z,30.23
2022-11-10T21:09:34.830Z,24.40
2022-11-10T21:19:36.587Z,20.03
2022-11-10T21:29:38.375Z,20.03
2022-11-10T21:39:40.732Z,21.67
2022-11-10T21:49:42.350Z,22.43
2022-11-10T21:59:43.961Z,19.97
2022-11-10T22:10:04.016Z,19.60
2022-11-10T22:20:06.157Z,22.10
2022-11-10T22:30:08.526Z,20.37
2022-11-10T22:40:29.716Z,20.10
2022-11-10T22:50:31.314Z,19.53
2022-11-10T23:00:32.910Z,17.30
2022-11-10T23:10:34.882Z,17.73
2022-11-10T23:20:36.498Z,15.07
2022-11-10T23:30:38.094Z,19.33
2022-11-10T23:40:39.729Z,16.03
2022-11-10T23:50:41.431Z,19.60
